Ergonot — WDB8189 — position and weather

sailwx.info

Track history (hours):
 
Tides and Currents Weather Stations Pressure Air Temp Water Temp Dewpoint Dewpoint Depression Visibility Wind Speed Wind Dir Waves Ship Positions

Ergonot

Owner: Ergon Marine & Industrial Supply, Vicksburg, MS. More information available from US FCC via Universal Licensing System and Coast Guard Vessel Documentation Center.

Last reported at 2016-Jun-07 15:33 UTC. Time now 2016-Jun-27 09:36 UTC.
Position N 32°23' W 090°53'.
Warning: this ship's position is 19 days out of date.

Length 56 m; draft 2 m.

Type: Towing. MMSI: 365905904.

Date/timePositionNaut miles runAvg speedWind from/ knotsBaromVisibWave heightAir tempDewpointWater temp
2016-Jun-07 15:33N 32°23' W 090°53'0 0.0
2016-Jun-07 14:33N 32°23' W 090°53'0 0.0
2016-Jun-07 13:33N 32°23' W 090°53'0 0.0
2016-Jun-07 12:33N 32°23' W 090°53'0 0.0
2016-Jun-06 22:30N 32°23' W 090°53'0 0.0
2016-Jun-06 21:34N 32°23' W 090°53'0 0.0
2016-Jun-06 20:33N 32°23' W 090°53'0 0.0
2016-Jun-06 19:33N 32°23' W 090°53'0 0.0
2016-Jun-06 18:34N 32°23' W 090°53'0 0.0
2016-Jun-06 17:33N 32°23' W 090°53'0 0.0
2016-Jun-06 16:34N 32°23' W 090°53'0 0.0
2016-Jun-06 15:33N 32°23' W 090°53'0 0.0
2016-Jun-06 14:34N 32°23' W 090°53'0 0.0
2016-Jun-06 13:34N 32°23' W 090°53'0 0.0
2016-Jun-06 12:33N 32°23' W 090°53'0 0.0
2016-Jun-06 11:33N 32°23' W 090°53'0 0.0
2016-Jun-06 10:34N 32°23' W 090°53'0 0.0
2016-Jun-05 12:33N 32°23' W 090°53'0 0.0
2016-Jun-05 11:33N 32°23' W 090°53'0 0.0
2016-Jun-05 10:33N 32°23' W 090°53'0 0.0
2016-Jun-05 09:33N 32°23' W 090°53'0 0.0
2016-Jun-05 08:33N 32°23' W 090°53'0 0.0
2016-Jun-05 07:33N 32°23' W 090°53'0 0.0
2016-Jun-05 06:33N 32°23' W 090°53'0 0.0
2016-Jun-05 05:33N 32°23' W 090°53'3 2.8
2016-Jun-05 04:33N 32°20' W 090°54'8 8.3
2016-Jun-05 03:33N 32°26' W 091°01'1110.7
2016-Jun-05 02:33N 32°35' W 091°08'  
2016-Jun-01 16:33N 32°35' W 091°07'5 5.0
2016-Jun-01 15:33N 32°30' W 091°07'5 5.2
2016-Jun-01 14:33N 32°26' W 091°03'4 4.4
2016-Jun-01 13:33N 32°22' W 091°00'5 4.7
2016-Jun-01 12:33N 32°21' W 090°55'1 1.2
2016-Jun-01 11:33N 32°20' W 090°54'3 2.7
2016-Jun-01 10:33N 32°23' W 090°53'0 0.0
2016-Jun-01 09:33N 32°23' W 090°53'0 0.0
2016-Jun-01 08:33N 32°23' W 090°53'0 0.0
2016-Jun-01 07:33N 32°23' W 090°53'0 0.0
2016-Jun-01 06:33N 32°23' W 090°53'0 0.0
2016-Jun-01 05:33N 32°23' W 090°53'0 0.0
2016-Jun-01 04:33N 32°23' W 090°53'0 0.0
2016-Jun-01 03:33N 32°23' W 090°53'0 0.0
2016-Jun-01 02:33N 32°23' W 090°53'1 1.0
2016-Jun-01 01:33N 32°23' W 090°54'0 0.0
2016-Jun-01 00:33N 32°23' W 090°54'0 0.0
2016-May-31 23:33N 32°23' W 090°54'0 0.0
2016-May-31 22:33N 32°23' W 090°54'0 0.0
2016-May-31 21:33N 32°23' W 090°54'0 0.0
2016-May-31 20:33N 32°23' W 090°54'0 0.0
2016-May-31 19:33N 32°23' W 090°54'0 0.0
2016-May-31 18:33N 32°23' W 090°54'0 0.0
2016-May-31 17:33N 32°23' W 090°54'0 0.0
2016-May-31 16:33N 32°23' W 090°54'0 0.0
2016-May-31 15:33N 32°23' W 090°54'0 0.0
2016-May-31 14:33N 32°23' W 090°54'0 0.0
2016-May-31 13:33N 32°23' W 090°54'1 1.0
2016-May-31 12:33N 32°23' W 090°53'0 0.0
2016-May-31 11:33N 32°23' W 090°53'0 0.0
2016-May-31 10:33N 32°23' W 090°53'0 0.0
2016-May-31 09:33N 32°23' W 090°53'0 0.0
2016-May-31 08:33N 32°23' W 090°53'0 0.0
2016-May-31 07:33N 32°23' W 090°53'0 0.0
2016-May-31 06:33N 32°23' W 090°53'0 0.0
2016-May-31 04:33N 32°23' W 090°53'0 0.0
2016-May-31 03:33N 32°23' W 090°53'0 0.0
2016-May-31 02:33N 32°23' W 090°53'0 0.0
2016-May-31 01:33N 32°23' W 090°53'0 0.0
2016-May-31 00:33N 32°23' W 090°53'0 0.0
2016-May-30 23:33N 32°23' W 090°53'0 0.0
2016-May-30 22:33N 32°23' W 090°53'0 0.0
2016-May-30 21:33N 32°23' W 090°53'0 0.0
2016-May-30 20:33N 32°23' W 090°53'0 0.0
2016-May-30 19:33N 32°23' W 090°53'0 0.0
2016-May-30 18:33N 32°23' W 090°53'0 0.0
2016-May-30 17:33N 32°23' W 090°53'0 0.0
2016-May-30 16:33N 32°23' W 090°53'0 0.0
2016-May-30 15:33N 32°23' W 090°53'0 0.0
2016-May-30 14:33N 32°23' W 090°53'0 0.0
2016-May-30 13:33N 32°23' W 090°53'0 0.0
2016-May-30 12:33N 32°23' W 090°53'0 0.0
2016-May-30 11:33N 32°23' W 090°53'0 0.0
2016-May-30 10:33N 32°23' W 090°53'0 0.0
2016-May-30 09:33N 32°23' W 090°53'0 0.0
2016-May-30 08:33N 32°23' W 090°53'0 0.0
2016-May-30 07:33N 32°23' W 090°53'0 0.0
2016-May-30 06:33N 32°23' W 090°53'0 0.0
2016-May-30 05:33N 32°23' W 090°53'0 0.0
2016-May-30 04:33N 32°23' W 090°53'0 0.0
2016-May-30 03:33N 32°23' W 090°53'0 0.0
2016-May-30 02:34N 32°23' W 090°53'0 0.0
2016-May-30 01:33N 32°23' W 090°53'0 0.0
2016-May-30 00:33N 32°23' W 090°53'0 0.0
2016-May-29 23:33N 32°23' W 090°53'0 0.0
2016-May-29 22:33N 32°23' W 090°53'0 0.0
2016-May-29 21:33N 32°23' W 090°53'0 0.0
2016-May-29 20:33N 32°23' W 090°53'0 0.0
2016-May-29 19:33N 32°23' W 090°53'0 0.0
2016-May-29 18:34N 32°23' W 090°53'0 0.0
2016-May-29 17:33N 32°23' W 090°53'0 0.0
2016-May-29 16:33N 32°23' W 090°53'0 0.0
2016-May-29 15:33N 32°23' W 090°53'0 0.0
2016-May-29 14:33N 32°23' W 090°53'0 0.0
2016-May-29 13:33N 32°23' W 090°53'0 0.0
2016-May-29 12:33N 32°23' W 090°53'0 0.0
2016-May-29 11:33N 32°23' W 090°53'0 0.0
2016-May-29 10:33N 32°23' W 090°53'0 0.0
2016-May-29 09:33N 32°23' W 090°53'0 0.0
2016-May-29 08:33N 32°23' W 090°53'0 0.0
2016-May-29 07:33N 32°23' W 090°53'0 0.0
2016-May-29 06:33N 32°23' W 090°53'0 0.0
2016-May-29 05:33N 32°23' W 090°53'0 0.0
2016-May-29 04:33N 32°23' W 090°53'0 0.0
2016-May-29 03:33N 32°23' W 090°53'0 0.0
2016-May-29 02:33N 32°23' W 090°53'0 0.0
2016-May-29 01:33N 32°23' W 090°53'0 0.0
2016-May-29 00:33N 32°23' W 090°53'0 0.0
2016-May-28 23:33N 32°23' W 090°53'0 0.0
2016-May-28 22:33N 32°23' W 090°53'0 0.0
2016-May-28 21:33N 32°23' W 090°53'0 0.0
2016-May-28 20:33N 32°23' W 090°53'0 0.0
2016-May-28 19:33N 32°23' W 090°53'0 0.0
2016-May-28 18:33N 32°23' W 090°53'0 0.0
2016-May-28 17:33N 32°23' W 090°53'0 0.0
2016-May-28 16:33N 32°23' W 090°53'  
Track history (hours):
 
Tides and Currents Weather Stations Pressure Air Temp Water Temp Dewpoint Dewpoint Depression Visibility Wind Speed Wind Dir Waves Ship Positions

Ergonot

Owner: Ergon Marine & Industrial Supply, Vicksburg, MS. More information available from US FCC via Universal Licensing System and Coast Guard Vessel Documentation Center.

Last reported at 2016-Jun-07 15:33 UTC. Time now 2016-Jun-27 09:36 UTC.
Position N 32°23' W 090°53'.
Warning: this ship's position is 19 days out of date.

Length 56 m; draft 2 m.

Type: Towing. MMSI: 365905904.

Date/timePositionNaut miles runAvg speedWind from/ knotsBaromVisibWave heightAir tempDewpointWater temp
2016-Jun-07 15:33N 32°23' W 090°53'0 0.0
2016-Jun-07 14:33N 32°23' W 090°53'0 0.0
2016-Jun-07 13:33N 32°23' W 090°53'0 0.0
2016-Jun-07 12:33N 32°23' W 090°53'0 0.0
2016-Jun-06 22:30N 32°23' W 090°53'0 0.0
2016-Jun-06 21:34N 32°23' W 090°53'0 0.0
2016-Jun-06 20:33N 32°23' W 090°53'0 0.0
2016-Jun-06 19:33N 32°23' W 090°53'0 0.0
2016-Jun-06 18:34N 32°23' W 090°53'0 0.0
2016-Jun-06 17:33N 32°23' W 090°53'0 0.0
2016-Jun-06 16:34N 32°23' W 090°53'0 0.0
2016-Jun-06 15:33N 32°23' W 090°53'0 0.0
2016-Jun-06 14:34N 32°23' W 090°53'0 0.0
2016-Jun-06 13:34N 32°23' W 090°53'0 0.0
2016-Jun-06 12:33N 32°23' W 090°53'0 0.0
2016-Jun-06 11:33N 32°23' W 090°53'0 0.0
2016-Jun-06 10:34N 32°23' W 090°53'0 0.0
2016-Jun-05 12:33N 32°23' W 090°53'0 0.0
2016-Jun-05 11:33N 32°23' W 090°53'0 0.0
2016-Jun-05 10:33N 32°23' W 090°53'0 0.0
2016-Jun-05 09:33N 32°23' W 090°53'0 0.0
2016-Jun-05 08:33N 32°23' W 090°53'0 0.0
2016-Jun-05 07:33N 32°23' W 090°53'0 0.0
2016-Jun-05 06:33N 32°23' W 090°53'0 0.0
2016-Jun-05 05:33N 32°23' W 090°53'3 2.8
2016-Jun-05 04:33N 32°20' W 090°54'8 8.3
2016-Jun-05 03:33N 32°26' W 091°01'1110.7
2016-Jun-05 02:33N 32°35' W 091°08'  
2016-Jun-01 16:33N 32°35' W 091°07'5 5.0
2016-Jun-01 15:33N 32°30' W 091°07'5 5.2
2016-Jun-01 14:33N 32°26' W 091°03'4 4.4
2016-Jun-01 13:33N 32°22' W 091°00'5 4.7
2016-Jun-01 12:33N 32°21' W 090°55'1 1.2
2016-Jun-01 11:33N 32°20' W 090°54'3 2.7
2016-Jun-01 10:33N 32°23' W 090°53'0 0.0
2016-Jun-01 09:33N 32°23' W 090°53'0 0.0
2016-Jun-01 08:33N 32°23' W 090°53'0 0.0
2016-Jun-01 07:33N 32°23' W 090°53'0 0.0
2016-Jun-01 06:33N 32°23' W 090°53'0 0.0
2016-Jun-01 05:33N 32°23' W 090°53'0 0.0
2016-Jun-01 04:33N 32°23' W 090°53'0 0.0
2016-Jun-01 03:33N 32°23' W 090°53'0 0.0
2016-Jun-01 02:33N 32°23' W 090°53'1 1.0
2016-Jun-01 01:33N 32°23' W 090°54'0 0.0
2016-Jun-01 00:33N 32°23' W 090°54'0 0.0
2016-May-31 23:33N 32°23' W 090°54'0 0.0
2016-May-31 22:33N 32°23' W 090°54'0 0.0
2016-May-31 21:33N 32°23' W 090°54'0 0.0
2016-May-31 20:33N 32°23' W 090°54'0 0.0
2016-May-31 19:33N 32°23' W 090°54'0 0.0
2016-May-31 18:33N 32°23' W 090°54'0 0.0
2016-May-31 17:33N 32°23' W 090°54'0 0.0
2016-May-31 16:33N 32°23' W 090°54'0 0.0
2016-May-31 15:33N 32°23' W 090°54'0 0.0
2016-May-31 14:33N 32°23' W 090°54'0 0.0
2016-May-31 13:33N 32°23' W 090°54'1 1.0
2016-May-31 12:33N 32°23' W 090°53'0 0.0
2016-May-31 11:33N 32°23' W 090°53'0 0.0
2016-May-31 10:33N 32°23' W 090°53'0 0.0
2016-May-31 09:33N 32°23' W 090°53'0 0.0
2016-May-31 08:33N 32°23' W 090°53'0 0.0
2016-May-31 07:33N 32°23' W 090°53'0 0.0
2016-May-31 06:33N 32°23' W 090°53'0 0.0
2016-May-31 04:33N 32°23' W 090°53'0 0.0
2016-May-31 03:33N 32°23' W 090°53'0 0.0
2016-May-31 02:33N 32°23' W 090°53'0 0.0
2016-May-31 01:33N 32°23' W 090°53'0 0.0
2016-May-31 00:33N 32°23' W 090°53'0 0.0
2016-May-30 23:33N 32°23' W 090°53'0 0.0
2016-May-30 22:33N 32°23' W 090°53'0 0.0
2016-May-30 21:33N 32°23' W 090°53'0 0.0
2016-May-30 20:33N 32°23' W 090°53'0 0.0
2016-May-30 19:33N 32°23' W 090°53'0 0.0
2016-May-30 18:33N 32°23' W 090°53'0 0.0
2016-May-30 17:33N 32°23' W 090°53'0 0.0
2016-May-30 16:33N 32°23' W 090°53'0 0.0
2016-May-30 15:33N 32°23' W 090°53'0 0.0
2016-May-30 14:33N 32°23' W 090°53'0 0.0
2016-May-30 13:33N 32°23' W 090°53'0 0.0
2016-May-30 12:33N 32°23' W 090°53'0 0.0
2016-May-30 11:33N 32°23' W 090°53'0 0.0
2016-May-30 10:33N 32°23' W 090°53'0 0.0
2016-May-30 09:33N 32°23' W 090°53'0 0.0
2016-May-30 08:33N 32°23' W 090°53'0 0.0
2016-May-30 07:33N 32°23' W 090°53'0 0.0
2016-May-30 06:33N 32°23' W 090°53'0 0.0
2016-May-30 05:33N 32°23' W 090°53'0 0.0
2016-May-30 04:33N 32°23' W 090°53'0 0.0
2016-May-30 03:33N 32°23' W 090°53'0 0.0
2016-May-30 02:34N 32°23' W 090°53'0 0.0
2016-May-30 01:33N 32°23' W 090°53'0 0.0
2016-May-30 00:33N 32°23' W 090°53'0 0.0
2016-May-29 23:33N 32°23' W 090°53'0 0.0
2016-May-29 22:33N 32°23' W 090°53'0 0.0
2016-May-29 21:33N 32°23' W 090°53'0 0.0
2016-May-29 20:33N 32°23' W 090°53'0 0.0
2016-May-29 19:33N 32°23' W 090°53'0 0.0
2016-May-29 18:34N 32°23' W 090°53'0 0.0
2016-May-29 17:33N 32°23' W 090°53'0 0.0
2016-May-29 16:33N 32°23' W 090°53'0 0.0
2016-May-29 15:33N 32°23' W 090°53'0 0.0
2016-May-29 14:33N 32°23' W 090°53'0 0.0
2016-May-29 13:33N 32°23' W 090°53'0 0.0
2016-May-29 12:33N 32°23' W 090°53'0 0.0
2016-May-29 11:33N 32°23' W 090°53'0 0.0
2016-May-29 10:33N 32°23' W 090°53'0 0.0
2016-May-29 09:33N 32°23' W 090°53'0 0.0
2016-May-29 08:33N 32°23' W 090°53'0 0.0
2016-May-29 07:33N 32°23' W 090°53'0 0.0
2016-May-29 06:33N 32°23' W 090°53'0 0.0
2016-May-29 05:33N 32°23' W 090°53'0 0.0
2016-May-29 04:33N 32°23' W 090°53'0 0.0
2016-May-29 03:33N 32°23' W 090°53'0 0.0
2016-May-29 02:33N 32°23' W 090°53'0 0.0
2016-May-29 01:33N 32°23' W 090°53'0 0.0
2016-May-29 00:33N 32°23' W 090°53'0 0.0
2016-May-28 23:33N 32°23' W 090°53'0 0.0
2016-May-28 22:33N 32°23' W 090°53'0 0.0
2016-May-28 21:33N 32°23' W 090°53'0 0.0
2016-May-28 20:33N 32°23' W 090°53'0 0.0
2016-May-28 19:33N 32°23' W 090°53'0 0.0
2016-May-28 18:33N 32°23' W 090°53'0 0.0
2016-May-28 17:33N 32°23' W 090°53'0 0.0
2016-May-28 16:33N 32°23' W 090°53'  

Dump ship's entire track history